Time;durP1;ratioP1;P1;durP2;ratioP2;P2;SDS_P1;SDS_P2;PMS_P1;PMS_P2;Temp;Humidity;BMP_temperature;BMP_pressure;BME280_temperature;BME280_humidity;BME280_pressure;Samples;Min_cycle;Max_cycle;Signal;HPM_P1;HPM_P2
2022/08/21 00:02:23;;;;;;;5.83;3.07;;;;;;;17.02;69.59;100143.41;4984246;28;20650;-77
2022/08/21 00:04:50;;;;;;;6.80;2.87;;;;;;;17.00;69.24;100143.50;4994805;28;20199;-77
2022/08/21 00:07:16;;;;;;;7.23;3.10;;;;;;;16.90;70.90;100135.59;4990723;28;20226;-77
2022/08/21 00:09:42;;;;;;;8.80;3.13;;;;;;;16.98;70.45;100145.41;4994568;28;20183;-77
2022/08/21 00:12:07;;;;;;;6.17;3.17;;;;;;;16.93;71.52;100143.19;5000316;28;20293;-77
2022/08/21 00:14:34;;;;;;;7.67;2.97;;;;;;;16.94;70.94;100139.66;4992865;28;20176;-77
2022/08/21 00:16:59;;;;;;;6.50;3.40;;;;;;;16.89;71.90;100143.53;4994653;28;20214;-77
2022/08/21 00:19:25;;;;;;;5.27;2.93;;;;;;;16.85;75.59;100149.91;4994877;28;20229;-77
2022/08/21 00:21:51;;;;;;;6.60;3.20;;;;;;;16.83;74.65;100138.81;4998673;28;20222;-77
2022/08/21 00:24:18;;;;;;;7.87;3.00;;;;;;;16.74;74.94;100141.19;4995852;28;20583;-77
2022/08/21 00:26:43;;;;;;;7.57;3.47;;;;;;;16.69;75.54;100143.34;4989900;28;20188;-77
2022/08/21 00:29:09;;;;;;;6.77;3.30;;;;;;;16.68;74.18;100136.50;4986235;28;20176;-77
2022/08/21 00:31:34;;;;;;;5.07;3.30;;;;;;;16.58;77.48;100138.19;5007363;28;20689;-78
2022/08/21 00:34:00;;;;;;;8.77;3.03;;;;;;;16.56;75.36;100142.66;4990778;28;20189;-78
2022/08/21 00:36:25;;;;;;;9.47;3.33;;;;;;;16.57;74.83;100139.97;4997202;28;20917;-77
2022/08/21 00:38:50;;;;;;;5.07;3.13;;;;;;;16.58;74.90;100145.97;4985141;28;20554;-78
2022/08/21 00:41:16;;;;;;;8.10;3.00;;;;;;;16.54;76.45;100153.16;4989092;28;20351;-78
2022/08/21 00:43:41;;;;;;;6.43;2.97;;;;;;;16.49;76.42;100146.72;4991788;28;20203;-76
2022/08/21 00:46:07;;;;;;;5.03;3.07;;;;;;;16.43;76.53;100141.06;4993688;28;20257;-77
2022/08/21 00:48:34;;;;;;;8.37;3.20;;;;;;;16.30;77.79;100145.56;4989791;28;20180;-77
2022/08/21 00:51:08;;;;;;;10.67;3.37;;;;;;;16.25;75.84;100139.91;4991225;28;20219;-78
2022/08/21 00:53:37;;;;;;;8.53;3.00;;;;;;;16.35;74.51;100138.22;5007298;28;20191;-78
2022/08/21 00:56:06;;;;;;;5.10;2.93;;;;;;;16.28;74.04;100137.88;4993319;28;20183;-75
2022/08/21 00:58:35;;;;;;;6.80;3.47;;;;;;;16.32;74.45;100135.84;4993990;28;20191;-76
2022/08/21 01:01:02;;;;;;;6.53;3.00;;;;;;;16.21;74.78;100135.88;4982800;28;20236;-76
2022/08/21 01:03:28;;;;;;;7.30;3.30;;;;;;;16.33;73.76;100140.09;4992206;28;20199;-76
2022/08/21 01:05:54;;;;;;;5.77;2.53;;;;;;;16.26;73.27;100137.19;4990790;28;20599;-76
2022/08/21 01:08:21;;;;;;;8.33;3.13;;;;;;;16.26;72.82;100136.34;5008816;28;20176;-77
2022/08/21 01:10:48;;;;;;;8.90;3.07;;;;;;;16.20;73.44;100134.22;4982437;28;20318;-76
2022/08/21 01:13:16;;;;;;;5.90;2.80;;;;;;;16.24;72.38;100141.66;5003004;28;20183;-77
2022/08/21 01:15:46;;;;;;;6.97;3.17;;;;;;;16.16;72.76;100138.00;4988959;28;20188;-78
2022/08/21 01:18:12;;;;;;;6.57;3.30;;;;;;;16.13;73.03;100141.66;5007460;28;20746;-75
2022/08/21 01:20:46;;;;;;;5.53;2.80;;;;;;;16.14;72.88;100136.34;4988298;28;20250;-76
2022/08/21 01:23:11;;;;;;;5.17;2.93;;;;;;;16.10;72.86;100134.09;4989100;28;20255;-76
2022/08/21 01:25:37;;;;;;;6.90;2.90;;;;;;;16.07;74.36;100131.75;4983657;28;20245;-76
2022/08/21 01:28:11;;;;;;;6.13;3.20;;;;;;;16.05;73.82;100136.22;4993423;28;20215;-76
2022/08/21 01:30:38;;;;;;;7.37;3.10;;;;;;;16.10;73.98;100131.50;4994701;28;20237;-76
2022/08/21 01:33:03;;;;;;;6.20;2.70;;;;;;;16.08;73.88;100129.03;5001677;28;20183;-76
2022/08/21 01:35:29;;;;;;;8.10;3.50;;;;;;;16.06;74.20;100130.94;4991224;28;20172;-77
2022/08/21 01:37:55;;;;;;;7.27;2.70;;;;;;;16.10;73.88;100129.75;4982359;28;20275;-77
2022/08/21 01:40:21;;;;;;;8.60;3.20;;;;;;;15.96;76.46;100128.22;4994185;28;20224;-77
2022/08/21 01:42:47;;;;;;;6.50;3.07;;;;;;;15.97;75.83;100127.25;5006318;28;20242;-77
2022/08/21 01:45:14;;;;;;;5.90;2.97;;;;;;;15.92;77.62;100136.34;4992696;28;20237;-77
2022/08/21 01:47:39;;;;;;;5.50;2.97;;;;;;;16.00;76.85;100125.38;4993178;28;20242;-77
2022/08/21 01:50:10;;;;;;;6.00;2.73;;;;;;;15.96;76.25;100122.19;4978899;28;20180;-77
2022/08/21 01:52:36;;;;;;;7.27;2.50;;;;;;;15.89;77.09;100123.59;4996047;28;20636;-76
2022/08/21 01:55:03;;;;;;;6.93;2.70;;;;;;;15.85;75.56;100115.25;5007797;28;20282;-76
2022/08/21 01:57:32;;;;;;;7.13;3.23;;;;;;;15.76;75.65;100116.72;4993119;28;20202;-77
2022/08/21 01:59:58;;;;;;;8.10;3.17;;;;;;;15.80;75.71;100119.91;4992173;28;20270;-77
2022/08/21 02:02:24;;;;;;;8.87;3.90;;;;;;;15.78;76.06;100117.44;4998369;28;20242;-77
2022/08/21 02:04:49;;;;;;;8.63;3.37;;;;;;;15.67;77.11;100109.66;4987872;28;20204;-78
2022/08/21 02:07:15;;;;;;;6.40;2.83;;;;;;;15.65;77.12;100114.97;4986167;28;20345;-77
2022/08/21 02:09:42;;;;;;;6.40;2.80;;;;;;;15.70;77.49;100111.19;4992686;28;20187;-77
2022/08/21 02:12:10;;;;;;;6.20;3.20;;;;;;;15.71;78.33;100110.25;4980653;28;20374;-77
2022/08/21 02:14:35;;;;;;;7.43;3.53;;;;;;;15.64;80.09;100107.28;4989936;28;20582;-74
2022/08/21 02:17:01;;;;;;;6.00;2.70;;;;;;;15.68;79.00;100113.91;4992742;28;20265;-77
2022/08/21 02:19:26;;;;;;;8.57;2.77;;;;;;;15.63;78.06;100103.88;4992660;28;20187;-77
2022/08/21 02:21:51;;;;;;;5.47;2.93;;;;;;;15.62;77.74;100104.00;4997006;28;20223;-77
2022/08/21 02:24:17;;;;;;;6.17;3.53;;;;;;;15.60;77.52;100104.13;4993704;28;20215;-75
2022/08/21 02:26:42;;;;;;;6.40;3.40;;;;;;;15.54;77.56;100106.34;4992609;28;20179;-75
2022/08/21 02:29:07;;;;;;;5.63;3.00;;;;;;;15.57;77.36;100104.34;4992709;28;20194;-75
2022/08/21 02:31:33;;;;;;;7.40;3.20;;;;;;;15.27;79.93;100107.47;5012116;28;20218;-75
2022/08/21 02:33:59;;;;;;;7.90;3.20;;;;;;;15.19;81.70;100110.63;5000244;28;20198;-77
2022/08/21 02:36:26;;;;;;;5.60;3.00;;;;;;;15.23;81.96;100109.47;4990451;28;20180;-77
2022/08/21 02:38:52;;;;;;;6.47;3.20;;;;;;;15.26;82.28;100108.41;5004040;28;20694;-75
2022/08/21 02:41:20;;;;;;;8.27;3.23;;;;;;;15.27;82.19;100104.88;4992223;28;20230;-77
2022/08/21 02:43:46;;;;;;;5.63;2.93;;;;;;;15.33;82.39;100101.81;4997672;28;20674;-77
2022/08/21 02:46:14;;;;;;;7.30;3.70;;;;;;;15.32;82.90;100103.59;4991953;28;20184;-78
2022/08/21 02:48:40;;;;;;;9.63;3.43;;;;;;;15.37;84.21;100103.25;4992359;28;20251;-77
2022/08/21 02:51:08;;;;;;;6.20;3.63;;;;;;;15.39;82.53;100105.72;4992016;28;20273;-76
2022/08/21 02:53:35;;;;;;;7.90;3.27;;;;;;;15.38;83.95;100106.66;4997919;28;20648;-76
2022/08/21 02:56:03;;;;;;;8.10;3.97;;;;;;;15.36;82.34;100111.16;5009250;28;20172;-76
2022/08/21 02:58:32;;;;;;;9.00;3.30;;;;;;;15.31;84.47;100114.91;4991904;28;20184;-77
2022/08/21 03:00:58;;;;;;;6.13;3.33;;;;;;;15.32;83.92;100108.78;4975080;28;20227;-77
2022/08/21 03:03:24;;;;;;;10.57;3.63;;;;;;;15.30;84.70;100118.41;4995540;28;20278;-76
2022/08/21 03:05:50;;;;;;;8.23;3.13;;;;;;;15.30;83.18;100117.63;4992215;28;20184;-77
2022/08/21 03:08:17;;;;;;;4.40;3.00;;;;;;;15.31;82.92;100114.91;4996108;28;20179;-77
2022/08/21 03:10:46;;;;;;;7.63;3.50;;;;;;;15.30;81.79;100110.66;4991480;28;20238;-77
2022/08/21 03:13:12;;;;;;;6.47;3.23;;;;;;;15.32;83.69;100113.16;4991635;28;20180;-78
2022/08/21 03:15:38;;;;;;;6.00;3.43;;;;;;;15.30;82.27;100110.66;4995929;28;20248;-77
2022/08/21 03:18:04;;;;;;;8.30;3.50;;;;;;;15.23;82.95;100106.03;5006199;28;20632;-76
2022/08/21 03:20:32;;;;;;;8.37;3.30;;;;;;;15.23;82.51;100104.28;4989628;28;20232;-77
2022/08/21 03:22:58;;;;;;;7.27;3.00;;;;;;;15.22;82.97;100094.03;4993685;28;20222;-76
2022/08/21 03:25:26;;;;;;;4.40;2.87;;;;;;;15.22;83.83;100105.22;4995484;28;20179;-76
2022/08/21 03:27:51;;;;;;;7.80;3.33;;;;;;;15.27;82.09;100103.13;4995550;28;20192;-76
2022/08/21 03:30:20;;;;;;;5.87;3.27;;;;;;;15.25;81.82;100097.22;4970392;28;20187;-76
2022/08/21 03:32:46;;;;;;;5.60;2.93;;;;;;;15.27;82.16;100099.69;5006792;28;20231;-76
2022/08/21 03:35:12;;;;;;;8.77;3.30;;;;;;;15.21;82.74;100098.38;4995217;28;20241;-76
2022/08/21 03:37:37;;;;;;;8.97;3.80;;;;;;;15.19;82.94;100097.66;4994366;28;20184;-76
2022/08/21 03:40:08;;;;;;;5.77;3.20;;;;;;;15.09;83.27;100107.88;4988231;28;20219;-76
2022/08/21 03:42:33;;;;;;;4.90;3.17;;;;;;;15.11;83.92;100094.84;4990716;28;20195;-76
2022/08/21 03:44:58;;;;;;;6.37;2.83;;;;;;;15.00;84.88;100111.16;4986887;28;20207;-77
2022/08/21 03:47:24;;;;;;;8.70;3.27;;;;;;;14.93;85.67;100110.75;4995190;28;20183;-76
2022/08/21 03:49:50;;;;;;;5.20;3.10;;;;;;;14.97;85.46;100109.63;4991061;28;20192;-74
2022/08/21 03:52:16;;;;;;;7.27;3.07;;;;;;;14.94;85.96;100104.66;4985726;28;20592;-75
2022/08/21 03:54:42;;;;;;;7.43;3.30;;;;;;;14.94;85.65;100106.44;4991905;28;20183;-75
2022/08/21 03:57:08;;;;;;;8.13;3.50;;;;;;;15.00;85.04;100111.16;4995279;28;20195;-75
2022/08/21 03:59:33;;;;;;;5.97;3.00;;;;;;;14.93;85.67;100107.34;4995135;28;20190;-75
2022/08/21 04:02:00;;;;;;;9.50;3.53;;;;;;;14.82;87.31;100108.97;4999283;28;20376;-74
2022/08/21 04:04:28;;;;;;;7.80;3.27;;;;;;;14.87;87.33;100108.63;4990047;28;20550;-76
2022/08/21 04:06:54;;;;;;;6.60;3.90;;;;;;;14.85;87.06;100111.31;4994042;28;20186;-76
2022/08/21 04:09:19;;;;;;;6.90;3.30;;;;;;;14.83;87.18;100120.16;4995024;28;20245;-75
2022/08/21 04:11:47;;;;;;;8.33;3.63;;;;;;;14.87;87.96;100115.56;4986381;28;20247;-59
2022/08/21 04:14:14;;;;;;;5.97;3.47;;;;;;;14.71;88.81;100119.28;4996782;28;20179;-61
2022/08/21 04:16:40;;;;;;;8.97;3.30;;;;;;;14.67;89.51;100120.41;4994685;28;20290;-61
2022/08/21 04:19:07;;;;;;;7.57;3.63;;;;;;;14.79;89.26;100116.13;4995156;28;20190;-61
2022/08/21 04:21:33;;;;;;;7.17;2.90;;;;;;;14.68;90.12;100122.06;4996204;28;20284;-61
2022/08/21 04:23:59;;;;;;;7.53;3.10;;;;;;;14.69;90.17;100121.97;4997705;28;20654;-60
2022/08/21 04:26:25;;;;;;;7.40;3.27;;;;;;;14.75;89.78;100128.47;4994745;28;20592;-61
2022/08/21 04:28:50;;;;;;;6.27;3.80;;;;;;;14.89;89.81;100137.84;4993251;28;20186;-60
2022/08/21 04:31:16;;;;;;;8.37;4.07;;;;;;;14.92;88.17;100139.38;5002573;28;20222;-61
2022/08/21 04:33:41;;;;;;;9.77;3.47;;;;;;;14.90;89.00;100141.25;4988408;28;20184;-60
2022/08/21 04:36:07;;;;;;;5.63;3.50;;;;;;;14.98;88.35;100144.94;5010563;28;20651;-60
2022/08/21 04:38:33;;;;;;;8.57;3.83;;;;;;;15.03;87.81;100144.59;4980502;28;20207;-61
2022/08/21 04:40:58;;;;;;;7.83;3.40;;;;;;;15.14;86.93;100143.81;4986387;28;20296;-61
2022/08/21 04:43:24;;;;;;;9.17;3.73;;;;;;;15.10;87.41;100145.81;5002241;28;20785;-61
2022/08/21 04:45:51;;;;;;;5.80;3.60;;;;;;;15.02;88.16;100150.75;4993814;28;20267;-61
2022/08/21 04:48:19;;;;;;;10.33;3.87;;;;;;;15.23;86.97;100160.47;4994327;28;20184;-60
2022/08/21 04:51:08;;;;;;;5.10;3.13;;;;;;;15.22;89.13;100154.47;4989982;28;20227;-60
2022/08/21 04:53:43;;;;;;;8.20;3.40;;;;;;;15.14;87.15;100151.59;4990650;28;20250;-60
2022/08/21 04:56:24;;;;;;;4.33;3.47;;;;;;;15.14;87.54;100157.63;4984808;28;20661;-60
2022/08/21 04:58:54;;;;;;;6.60;3.43;;;;;;;15.26;87.76;100157.66;4994578;28;20210;-60
2022/08/21 05:01:24;;;;;;;6.70;3.37;;;;;;;15.46;87.05;100151.00;5002743;28;20646;-60
2022/08/21 05:03:52;;;;;;;7.03;3.47;;;;;;;15.57;86.91;100153.59;4999072;28;20210;-60
2022/08/21 05:06:18;;;;;;;7.03;3.90;;;;;;;15.53;85.13;100159.97;4993708;28;20183;-60
2022/08/21 05:08:46;;;;;;;6.80;3.70;;;;;;;15.57;84.43;100158.78;4993936;28;20194;-61
2022/08/21 05:11:13;;;;;;;6.47;3.60;;;;;;;15.62;85.17;100163.66;4982643;28;20238;-59
2022/08/21 05:13:40;;;;;;;10.20;4.50;;;;;;;15.81;84.98;100163.06;4994401;28;20187;-60
2022/08/21 05:16:06;;;;;;;5.27;3.23;;;;;;;15.86;83.73;100163.56;4993169;28;20207;-60
2022/08/21 05:18:31;;;;;;;6.47;3.63;;;;;;;15.96;82.22;100168.91;4993824;28;20800;-61
2022/08/21 05:20:56;;;;;;;6.90;3.13;;;;;;;15.98;81.68;100167.03;4990340;28;20251;-60
2022/08/21 05:23:22;;;;;;;8.53;3.40;;;;;;;16.07;82.29;100170.69;4992329;28;20219;-61
2022/08/21 05:25:47;;;;;;;8.87;3.60;;;;;;;16.20;79.50;100161.00;4993181;28;20187;-61
2022/08/21 05:28:12;;;;;;;8.73;3.80;;;;;;;16.27;79.89;100167.38;4993597;28;20318;-60
2022/08/21 05:30:38;;;;;;;10.30;3.40;;;;;;;16.36;78.64;100165.84;4986126;28;20717;-60
2022/08/21 05:33:05;;;;;;;6.57;3.70;;;;;;;16.38;79.25;100160.53;5004220;28;20183;-60
2022/08/21 05:35:32;;;;;;;7.53;3.20;;;;;;;16.44;78.97;100160.84;4997865;28;20190;-60
2022/08/21 05:37:58;;;;;;;6.30;3.80;;;;;;;16.68;76.23;100172.84;4983528;28;20188;-61
2022/08/21 05:40:24;;;;;;;8.13;3.23;;;;;;;16.71;74.79;100164.81;4982278;28;20282;-60
2022/08/21 05:42:51;;;;;;;7.80;3.50;;;;;;;16.83;73.00;100163.03;5005737;28;20186;-60
2022/08/21 05:45:16;;;;;;;5.90;3.53;;;;;;;16.87;72.08;100172.22;4992683;28;20239;-60
2022/08/21 05:47:42;;;;;;;6.53;2.87;;;;;;;16.90;71.67;100169.38;4993518;28;20257;-61
2022/08/21 05:50:07;;;;;;;9.57;3.93;;;;;;;16.85;71.50;100176.72;4983682;28;20677;-61
2022/08/21 05:52:33;;;;;;;7.60;3.60;;;;;;;16.92;71.53;100172.72;5013629;28;20180;-61
2022/08/21 05:54:58;;;;;;;9.50;3.40;;;;;;;17.07;70.65;100177.63;4993011;28;20190;-61
2022/08/21 05:57:25;;;;;;;8.07;3.83;;;;;;;17.10;69.94;100167.81;4993375;28;20254;-61
2022/08/21 05:59:50;;;;;;;7.07;3.37;;;;;;;17.14;69.63;100163.19;4993381;28;20299;-61
2022/08/21 06:02:18;;;;;;;8.83;3.90;;;;;;;17.24;71.35;100169.28;4998322;28;20238;-61
2022/08/21 06:04:43;;;;;;;7.27;3.90;;;;;;;17.31;69.02;100179.19;4992381;28;20222;-60
2022/08/21 06:07:08;;;;;;;9.77;3.90;;;;;;;17.47;69.02;100171.75;4992978;28;20222;-60
2022/08/21 06:10:27;;;;;;;5.00;2.77;;;;;;;17.60;67.71;100176.78;4992624;28;20597;-70
2022/08/21 06:12:54;;;;;;;13.80;5.43;;;;;;;17.80;67.85;100174.28;4980258;28;20225;-75
2022/08/21 06:15:20;;;;;;;7.97;3.93;;;;;;;17.99;65.99;100171.00;4992086;28;20182;-75
2022/08/21 06:17:45;;;;;;;6.57;3.40;;;;;;;18.16;66.16;100172.16;4992685;28;20612;-72
2022/08/21 06:20:11;;;;;;;6.77;3.57;;;;;;;18.47;64.39;100170.34;4978844;28;20188;-78
2022/08/21 06:22:36;;;;;;;6.50;3.10;;;;;;;18.42;65.15;100174.28;5000447;28;20184;-75
2022/08/21 06:25:01;;;;;;;9.47;3.80;;;;;;;18.51;64.15;100174.31;4986862;28;20207;-74
2022/08/21 06:27:26;;;;;;;8.50;3.20;;;;;;;18.52;63.78;100175.97;4981111;28;20191;-74
2022/08/21 06:29:52;;;;;;;8.10;3.60;;;;;;;18.71;62.24;100172.56;4993494;28;20534;-74
2022/08/21 06:32:17;;;;;;;6.27;3.07;;;;;;;18.78;63.41;100166.81;4990536;28;20293;-73
2022/08/21 06:34:42;;;;;;;5.90;3.40;;;;;;;19.18;61.61;100163.31;4992013;28;20174;-73
2022/08/21 06:37:08;;;;;;;5.70;3.50;;;;;;;19.54;59.36;100166.16;4989952;28;20188;-74
2022/08/21 06:39:34;;;;;;;5.83;3.13;;;;;;;19.89;58.67;100156.06;4982119;28;20231;-74
2022/08/21 06:41:59;;;;;;;9.97;4.00;;;;;;;20.75;55.43;100162.78;4981688;28;20627;-73
2022/08/21 06:44:24;;;;;;;8.93;3.40;;;;;;;21.49;51.57;100162.56;4987002;28;20196;-73
2022/08/21 06:46:50;;;;;;;9.90;3.40;;;;;;;22.39;48.33;100164.88;4990624;28;20582;-74
2022/08/21 06:49:15;;;;;;;7.63;3.27;;;;;;;24.28;43.51;100156.03;4992210;28;20658;-74
2022/08/21 06:51:40;;;;;;;7.13;3.53;;;;;;;25.42;40.48;100162.50;4986513;28;20222;-72
2022/08/21 06:54:06;;;;;;;8.57;3.37;;;;;;;27.27;37.04;100168.47;4992716;28;20274;-71
2022/08/21 06:56:33;;;;;;;6.55;3.20;;;;;;;28.89;32.60;100165.53;4992191;28;20191;-72
2022/08/21 06:58:58;;;;;;;8.20;3.42;;;;;;;29.88;30.56;100178.88;4991977;28;20234;-72
2022/08/21 07:01:26;;;;;;;7.60;3.58;;;;;;;29.71;31.27;100180.34;4963256;28;20723;-75
2022/08/21 07:03:52;;;;;;;8.70;3.55;;;;;;;30.66;29.51;100177.09;4980916;28;20258;-74
2022/08/21 07:06:17;;;;;;;6.13;3.60;;;;;;;31.52;27.70;100189.91;4991175;28;20194;-74
2022/08/21 07:08:43;;;;;;;6.75;3.47;;;;;;;32.03;27.12;100183.41;4987746;28;20180;-74
2022/08/21 07:11:16;;;;;;;5.38;3.83;;;;;;;31.85;27.30;100188.72;4987828;28;20632;-74
2022/08/21 07:13:42;;;;;;;8.50;3.90;;;;;;;32.91;26.28;100185.69;4998062;28;20191;-74
2022/08/21 07:16:08;;;;;;;6.00;3.70;;;;;;;32.87;26.17;100186.38;4999260;28;20230;-75
2022/08/21 07:18:33;;;;;;;4.82;3.70;;;;;;;33.43;25.70;100193.03;4998991;28;20191;-75
2022/08/21 07:21:01;;;;;;;7.00;3.42;;;;;;;33.04;25.44;100192.66;4980705;28;20235;-75
2022/08/21 07:23:31;;;;;;;6.03;3.42;;;;;;;32.46;26.45;100188.78;4999455;28;20207;-75
2022/08/21 07:25:57;;;;;;;5.75;3.35;;;;;;;32.89;25.97;100184.31;4988714;28;20293;-74
2022/08/21 07:28:22;;;;;;;7.03;4.00;;;;;;;32.92;25.61;100189.97;4993187;28;20626;-75
2022/08/21 07:30:53;;;;;;;10.85;3.80;;;;;;;32.92;26.30;100191.81;4969524;28;20234;-76
2022/08/21 07:33:18;;;;;;;8.80;3.70;;;;;;;33.55;25.23;100190.34;4998275;28;20230;-76
2022/08/21 07:35:44;;;;;;;6.00;3.50;;;;;;;34.32;24.09;100191.06;4989873;28;20184;-76
2022/08/21 07:38:09;;;;;;;11.35;4.50;;;;;;;34.87;23.45;100189.66;4978858;28;20279;-76
2022/08/21 07:40:34;;;;;;;5.80;4.18;;;;;;;35.38;23.64;100189.59;5000938;28;20226;-76
2022/08/21 07:43:00;;;;;;;6.93;3.88;;;;;;;36.00;21.90;100203.75;5006624;28;20183;-76
2022/08/21 07:45:26;;;;;;;8.50;3.78;;;;;;;34.65;23.71;100194.88;4993524;28;20731;-76
2022/08/21 07:47:51;;;;;;;7.35;3.58;;;;;;;36.40;22.27;100191.06;5010771;28;20175;-76
2022/08/21 07:50:17;;;;;;;7.45;4.03;;;;;;;35.96;22.05;100186.59;5002149;28;20665;-76
2022/08/21 07:52:43;;;;;;;10.10;3.78;;;;;;;36.09;22.32;100187.25;5014339;28;20218;-76
2022/08/21 07:55:15;;;;;;;5.00;3.75;;;;;;;36.45;22.12;100185.75;4995021;28;20183;-76
2022/08/21 07:57:41;;;;;;;7.75;4.32;;;;;;;34.64;24.12;100179.88;4990712;28;20231;-76
2022/08/21 08:00:10;;;;;;;7.15;4.15;;;;;;;33.32;25.75;100172.53;4991134;28;20219;-76
2022/08/21 08:02:36;;;;;;;7.60;4.35;;;;;;;33.21;26.21;100168.00;4993281;28;20640;-76
2022/08/21 08:05:07;;;;;;;7.10;4.43;;;;;;;34.52;24.75;100174.63;4990084;28;20208;-77
2022/08/21 08:07:34;;;;;;;7.18;4.30;;;;;;;35.11;23.53;100172.63;4989632;28;20191;-76
2022/08/21 08:09:59;;;;;;;6.53;3.80;;;;;;;33.70;25.32;100170.38;4995035;28;20312;-75
2022/08/21 08:12:29;;;;;;;6.32;4.40;;;;;;;33.92;25.67;100165.25;5000713;28;20262;-75
2022/08/21 08:14:58;;;;;;;6.13;4.25;;;;;;;34.35;24.35;100174.59;4994826;28;20309;-75
2022/08/21 08:17:24;;;;;;;6.75;4.18;;;;;;;33.93;25.72;100169.53;4990479;28;20287;-75
2022/08/21 08:19:50;;;;;;;4.47;3.55;;;;;;;34.24;25.18;100162.09;4993524;28;20330;-76
2022/08/21 08:22:19;;;;;;;7.43;4.43;;;;;;;32.47;28.20;100153.97;4995243;28;20300;-76
2022/08/21 08:24:45;;;;;;;10.15;4.43;;;;;;;33.62;27.31;100163.56;4989196;28;20212;-76
2022/08/21 08:27:10;;;;;;;7.97;4.80;;;;;;;34.65;25.86;100165.50;4994831;28;20187;-75
2022/08/21 08:29:35;;;;;;;7.15;4.57;;;;;;;34.26;26.61;100154.63;4994595;28;20180;-76
2022/08/21 08:32:01;;;;;;;8.68;4.60;;;;;;;35.31;25.28;100164.88;5010866;28;20222;-76
2022/08/21 08:34:26;;;;;;;7.07;4.07;;;;;;;35.89;24.29;100161.88;4989536;28;20217;-76
2022/08/21 08:36:52;;;;;;;9.57;4.78;;;;;;;33.18;27.01;100160.44;4990789;28;20184;-76
2022/08/21 08:39:17;;;;;;;8.52;4.30;;;;;;;35.30;24.62;100151.75;4977234;28;20224;-76
2022/08/21 08:41:47;;;;;;;8.30;4.60;;;;;;;36.84;21.74;100149.88;4979367;28;20280;-76
2022/08/21 08:44:12;;;;;;;7.13;3.92;;;;;;;37.58;21.68;100158.91;4989169;28;20255;-76
2022/08/21 08:46:48;;;;;;;7.55;3.60;;;;;;;37.08;21.58;100141.50;4986052;28;20183;-76
2022/08/21 08:49:29;;;;;;;8.65;4.75;;;;;;;37.02;21.53;100143.31;4989621;28;20266;-76
2022/08/21 08:52:00;;;;;;;8.02;4.10;;;;;;;37.97;20.26;100146.16;4983923;28;20340;-76
2022/08/21 08:54:33;;;;;;;8.10;3.53;;;;;;;37.85;20.83;100141.84;4994551;28;20187;-76
2022/08/21 08:57:01;;;;;;;7.60;3.75;;;;;;;36.75;21.33;100140.72;4989659;28;20180;-76
2022/08/21 08:59:42;;;;;;;8.02;3.30;;;;;;;36.91;19.36;100136.28;4991407;28;20187;-75
2022/08/21 09:02:11;;;;;;;6.95;2.97;;;;;;;37.15;19.03;100140.19;4999157;28;20315;-76
2022/08/21 09:04:36;;;;;;;8.10;3.65;;;;;;;36.34;21.01;100144.66;4988935;28;20211;-76
2022/08/21 09:07:19;;;;;;;6.28;3.05;;;;;;;36.00;21.57;100146.75;4985643;28;20186;-75
2022/08/21 09:10:25;;;;;;;8.88;3.97;;;;;;;32.25;25.35;100121.75;4989383;28;20219;-75
2022/08/21 09:13:29;;;;;;;8.50;3.67;;;;;;;34.88;22.87;100135.16;4979773;28;20735;-75
2022/08/21 09:16:19;;;;;;;5.80;3.42;;;;;;;31.56;26.68;100129.94;4992324;28;20191;-75
2022/08/21 09:19:40;;;;;;;7.55;3.45;;;;;;;30.96;28.31;100118.06;5001134;28;20222;-75
2022/08/21 09:22:33;;;;;;;8.85;4.15;;;;;;;30.86;28.62;100128.34;4995618;28;20227;-75
2022/08/21 09:25:41;;;;;;;7.78;3.90;;;;;;;30.85;29.12;100126.69;4980536;28;20709;-75
2022/08/21 09:28:12;;;;;;;10.25;4.20;;;;;;;31.71;27.32;100125.06;4990837;28;20194;-75
2022/08/21 09:30:40;;;;;;;10.02;4.78;;;;;;;30.28;29.04;100124.84;4964600;28;20259;-75
2022/08/21 09:33:06;;;;;;;8.73;3.70;;;;;;;29.41;30.89;100131.28;4974666;28;20670;-74
2022/08/21 09:35:32;;;;;;;8.55;4.18;;;;;;;29.20;31.36;100134.13;4974068;28;20287;-75
2022/08/21 09:38:02;;;;;;;10.25;4.03;;;;;;;28.58;32.44;100129.84;4990793;28;20291;-75
2022/08/21 09:40:40;;;;;;;6.78;4.10;;;;;;;28.75;32.37;100127.66;4980622;28;20258;-75
2022/08/21 09:43:09;;;;;;;7.32;3.75;;;;;;;29.73;31.12;100125.28;4982700;28;20282;-76
2022/08/21 09:45:35;;;;;;;7.30;4.13;;;;;;;28.85;31.49;100115.84;4989349;28;20255;-76
2022/08/21 09:48:13;;;;;;;7.80;3.78;;;;;;;28.87;30.98;100111.16;4990676;28;20183;-76
2022/08/21 09:50:41;;;;;;;10.48;4.13;;;;;;;28.61;32.29;100116.19;4979939;28;20237;-77
2022/08/21 09:53:17;;;;;;;6.50;3.22;;;;;;;30.19;30.01;100105.72;4985279;28;20192;-76
2022/08/21 09:58:38;;;;;;;5.70;2.97;;;;;;;33.94;23.71;100099.13;4991180;28;20195;-76
2022/08/21 10:01:05;;;;;;;6.50;3.50;;;;;;;36.03;21.77;100104.25;4982469;28;20215;-76
2022/08/21 10:03:30;;;;;;;10.05;3.50;;;;;;;36.77;20.07;100101.88;4988527;28;20192;-76
2022/08/21 10:05:59;;;;;;;6.57;3.35;;;;;;;34.82;20.81;100095.19;4988849;28;20199;-76
2022/08/21 10:08:27;;;;;;;4.20;2.72;;;;;;;35.59;20.39;100100.78;4985230;28;20187;-76
2022/08/21 10:11:02;;;;;;;8.82;3.08;;;;;;;36.16;21.00;100096.84;4981951;28;20271;-76
2022/08/21 10:13:58;;;;;;;6.47;3.25;;;;;;;36.55;20.47;100088.59;4988451;28;20229;-76
2022/08/21 10:17:02;;;;;;;7.53;3.38;;;;;;;37.25;18.56;100091.16;5006259;28;20265;-76
2022/08/21 10:19:35;;;;;;;6.65;2.90;;;;;;;38.33;17.92;100097.88;4985660;28;20273;-75
2022/08/21 10:22:24;;;;;;;6.32;2.83;;;;;;;37.18;18.47;100087.09;4979951;28;20246;-76
2022/08/21 10:25:37;;;;;;;6.70;3.20;;;;;;;37.82;17.42;100094.03;4989730;28;20204;-75
2022/08/21 10:28:24;;;;;;;7.38;2.63;;;;;;;37.78;18.03;100087.56;4973761;28;20202;-74
2022/08/21 10:30:58;;;;;;;5.43;2.83;;;;;;;38.35;17.13;100083.09;4980353;28;20233;-76
2022/08/21 10:33:59;;;;;;;7.28;2.78;;;;;;;38.80;17.08;100091.38;4967630;28;20179;-75
2022/08/21 10:36:54;;;;;;;4.53;2.35;;;;;;;39.86;16.04;100095.75;4990385;28;20194;-75
2022/08/21 10:39:34;;;;;;;5.55;2.90;;;;;;;39.00;16.17;100092.38;4989962;28;20425;-75
2022/08/21 10:42:20;;;;;;;5.55;2.92;;;;;;;36.61;18.38;100074.19;4979890;28;20235;-75
2022/08/21 10:44:45;;;;;;;5.68;3.03;;;;;;;35.69;19.45;100080.31;4989836;28;20221;-75
2022/08/21 10:47:36;;;;;;;6.45;3.33;;;;;;;33.38;22.10;100059.63;4989707;28;20273;-75
2022/08/21 10:50:11;;;;;;;4.95;2.83;;;;;;;31.98;23.13;100057.44;4990043;28;20191;-75
2022/08/21 10:53:03;;;;;;;4.47;2.83;;;;;;;30.38;25.08;100058.84;4962989;28;20582;-76
2022/08/21 10:55:41;;;;;;;8.95;3.05;;;;;;;30.10;26.54;100049.47;4977574;28;20294;-75
2022/08/21 10:58:25;;;;;;;7.28;3.55;;;;;;;29.65;27.66;100041.53;4992277;28;20214;-76
2022/08/21 11:00:56;;;;;;;12.55;3.30;;;;;;;29.08;27.93;100038.63;4977560;28;20237;-76
2022/08/21 11:03:41;;;;;;;5.88;3.05;;;;;;;28.53;28.54;100036.22;5001088;28;20275;-75
2022/08/21 11:06:20;;;;;;;5.82;2.88;;;;;;;28.89;28.41;100027.88;4991757;28;20293;-75
2022/08/21 11:08:52;;;;;;;7.30;3.45;;;;;;;28.72;27.73;100031.97;4987846;28;20183;-76
2022/08/21 11:11:34;;;;;;;4.70;3.10;;;;;;;27.95;29.12;100027.78;4979050;28;20223;-76
2022/08/21 11:14:08;;;;;;;8.80;2.80;;;;;;;27.56;30.08;100021.34;4987055;28;20642;-75
2022/08/21 11:16:40;;;;;;;5.57;2.75;;;;;;;27.37;30.33;100025.50;4991495;28;20339;-76
2022/08/21 11:19:28;;;;;;;5.47;2.67;;;;;;;27.24;30.07;100028.91;5000719;28;20223;-76
2022/08/21 11:22:15;;;;;;;5.88;3.10;;;;;;;27.53;29.77;100016.47;4975763;28;20234;-75
2022/08/21 11:24:54;;;;;;;6.78;2.92;;;;;;;27.25;30.79;100030.53;4995317;28;20207;-76
2022/08/21 11:27:32;;;;;;;5.75;2.97;;;;;;;26.98;30.76;100025.09;4991409;28;20184;-77
2022/08/21 11:30:00;;;;;;;4.90;2.50;;;;;;;27.41;31.83;100023.34;4993979;28;20253;-75
2022/08/21 11:32:58;;;;;;;6.85;2.80;;;;;;;27.74;29.97;100018.16;4988462;28;20273;-76
2022/08/21 11:35:38;;;;;;;6.03;2.67;;;;;;;27.79;30.25;100018.38;4988132;28;20202;-75
2022/08/21 11:38:10;;;;;;;5.63;2.72;;;;;;;27.44;30.07;100012.34;4985152;28;20254;-75
2022/08/21 11:40:48;;;;;;;6.90;3.10;;;;;;;27.44;30.41;99999.16;4987318;28;20230;-76